sensor_id;sensor_type;location;lat;lon;timestamp;temperature;humidity
77247;SHT35;66279;42.820;23.374;2023-08-08T00:01:45;16.36;83.10
77247;SHT35;66279;42.820;23.374;2023-08-08T00:04:11;16.34;82.70
77247;SHT35;66279;42.820;23.374;2023-08-08T00:06:37;16.27;82.84
77247;SHT35;66279;42.820;23.374;2023-08-08T00:09:03;16.28;83.67
77247;SHT35;66279;42.820;23.374;2023-08-08T00:11:29;16.27;83.17
77247;SHT35;66279;42.820;23.374;2023-08-08T00:13:55;16.26;82.26
77247;SHT35;66279;42.820;23.374;2023-08-08T00:16:21;16.24;84.38
77247;SHT35;66279;42.820;23.374;2023-08-08T00:18:47;16.21;82.79
77247;SHT35;66279;42.820;23.374;2023-08-08T00:21:14;16.17;81.97
77247;SHT35;66279;42.820;23.374;2023-08-08T00:23:40;16.12;81.73
77247;SHT35;66279;42.820;23.374;2023-08-08T00:26:05;16.07;82.84
77247;SHT35;66279;42.820;23.374;2023-08-08T00:28:31;16.03;82.11
77247;SHT35;66279;42.820;23.374;2023-08-08T00:30:56;15.97;82.28
77247;SHT35;66279;42.820;23.374;2023-08-08T00:33:22;15.93;82.18
77247;SHT35;66279;42.820;23.374;2023-08-08T00:35:47;15.89;82.23
77247;SHT35;66279;42.820;23.374;2023-08-08T00:38:13;15.90;82.78
77247;SHT35;66279;42.820;23.374;2023-08-08T00:40:38;15.87;83.03
77247;SHT35;66279;42.820;23.374;2023-08-08T00:43:04;15.87;83.13
77247;SHT35;66279;42.820;23.374;2023-08-08T00:45:29;15.85;82.87
77247;SHT35;66279;42.820;23.374;2023-08-08T00:47:55;15.75;82.67
77247;SHT35;66279;42.820;23.374;2023-08-08T00:50:21;15.68;82.37
77247;SHT35;66279;42.820;23.374;2023-08-08T00:52:47;15.59;82.08
77247;SHT35;66279;42.820;23.374;2023-08-08T00:55:13;15.58;83.19
77247;SHT35;66279;42.820;23.374;2023-08-08T00:57:40;15.51;83.55
77247;SHT35;66279;42.820;23.374;2023-08-08T01:00:07;15.45;83.91
77247;SHT35;66279;42.820;23.374;2023-08-08T01:02:35;15.41;83.60
77247;SHT35;66279;42.820;23.374;2023-08-08T01:05:02;15.39;84.03
77247;SHT35;66279;42.820;23.374;2023-08-08T01:07:36;15.34;83.90
77247;SHT35;66279;42.820;23.374;2023-08-08T01:10:11;15.34;84.25
77247;SHT35;66279;42.820;23.374;2023-08-08T01:12:40;15.32;84.07
77247;SHT35;66279;42.820;23.374;2023-08-08T01:15:06;15.31;84.32
77247;SHT35;66279;42.820;23.374;2023-08-08T01:17:32;15.31;84.02
77247;SHT35;66279;42.820;23.374;2023-08-08T01:19:58;15.30;83.78
77247;SHT35;66279;42.820;23.374;2023-08-08T01:22:36;15.18;83.98
77247;SHT35;66279;42.820;23.374;2023-08-08T01:25:03;15.17;84.67
77247;SHT35;66279;42.820;23.374;2023-08-08T01:27:30;15.06;85.41
77247;SHT35;66279;42.820;23.374;2023-08-08T01:29:55;15.07;84.54
77247;SHT35;66279;42.820;23.374;2023-08-08T01:32:21;15.04;84.05
77247;SHT35;66279;42.820;23.374;2023-08-08T01:34:47;15.06;84.33
77247;SHT35;66279;42.820;23.374;2023-08-08T01:37:22;15.04;84.10
77247;SHT35;66279;42.820;23.374;2023-08-08T01:39:50;15.11;84.15
77247;SHT35;66279;42.820;23.374;2023-08-08T01:42:18;15.10;84.23
77247;SHT35;66279;42.820;23.374;2023-08-08T01:44:43;15.08;84.78
77247;SHT35;66279;42.820;23.374;2023-08-08T01:47:09;15.08;84.13
77247;SHT35;66279;42.820;23.374;2023-08-08T01:49:35;15.01;83.66
77247;SHT35;66279;42.820;23.374;2023-08-08T01:52:00;14.98;84.19
77247;SHT35;66279;42.820;23.374;2023-08-08T01:54:26;14.98;84.97
77247;SHT35;66279;42.820;23.374;2023-08-08T01:56:51;14.98;84.97
77247;SHT35;66279;42.820;23.374;2023-08-08T01:59:17;14.98;85.00
77247;SHT35;66279;42.820;23.374;2023-08-08T02:01:42;15.00;85.08
77247;SHT35;66279;42.820;23.374;2023-08-08T02:04:08;14.98;84.57
77247;SHT35;66279;42.820;23.374;2023-08-08T02:06:34;14.97;84.81
77247;SHT35;66279;42.820;23.374;2023-08-08T02:08:59;15.00;85.04
77247;SHT35;66279;42.820;23.374;2023-08-08T02:11:25;15.03;84.78
77247;SHT35;66279;42.820;23.374;2023-08-08T02:13:50;14.97;84.62
77247;SHT35;66279;42.820;23.374;2023-08-08T02:16:16;15.00;85.29
77247;SHT35;66279;42.820;23.374;2023-08-08T02:18:42;15.00;86.04
77247;SHT35;66279;42.820;23.374;2023-08-08T02:21:08;15.04;86.08
77247;SHT35;66279;42.820;23.374;2023-08-08T02:23:33;15.04;85.36
77247;SHT35;66279;42.820;23.374;2023-08-08T02:25:59;15.10;86.18
77247;SHT35;66279;42.820;23.374;2023-08-08T02:28:25;15.11;85.81
77247;SHT35;66279;42.820;23.374;2023-08-08T02:30:50;15.12;85.23
77247;SHT35;66279;42.820;23.374;2023-08-08T02:33:16;15.11;85.54
77247;SHT35;66279;42.820;23.374;2023-08-08T02:35:42;15.17;85.09
77247;SHT35;66279;42.820;23.374;2023-08-08T02:38:07;15.21;85.01
77247;SHT35;66279;42.820;23.374;2023-08-08T02:40:33;15.21;85.23
77247;SHT35;66279;42.820;23.374;2023-08-08T02:42:59;15.23;85.44
77247;SHT35;66279;42.820;23.374;2023-08-08T02:45:24;15.18;86.03
77247;SHT35;66279;42.820;23.374;2023-08-08T02:47:50;15.23;86.68
77247;SHT35;66279;42.820;23.374;2023-08-08T02:50:15;15.21;86.40
77247;SHT35;66279;42.820;23.374;2023-08-08T02:52:41;15.17;86.16
77247;SHT35;66279;42.820;23.374;2023-08-08T02:55:07;15.18;86.26
77247;SHT35;66279;42.820;23.374;2023-08-08T02:57:33;15.16;85.75
77247;SHT35;66279;42.820;23.374;2023-08-08T02:59:58;15.21;86.20
77247;SHT35;66279;42.820;23.374;2023-08-08T03:02:24;15.16;86.50
77247;SHT35;66279;42.820;23.374;2023-08-08T03:04:49;15.18;85.70
77247;SHT35;66279;42.820;23.374;2023-08-08T03:07:15;15.23;85.78
77247;SHT35;66279;42.820;23.374;2023-08-08T03:09:40;15.27;85.94
77247;SHT35;66279;42.820;23.374;2023-08-08T03:12:06;15.28;85.71
77247;SHT35;66279;42.820;23.374;2023-08-08T03:14:32;15.30;85.73
77247;SHT35;66279;42.820;23.374;2023-08-08T03:16:59;15.35;85.68
77247;SHT35;66279;42.820;23.374;2023-08-08T03:19:24;15.35;86.69
77247;SHT35;66279;42.820;23.374;2023-08-08T03:21:50;15.37;86.40
77247;SHT35;66279;42.820;23.374;2023-08-08T03:24:16;15.35;86.14
77247;SHT35;66279;42.820;23.374;2023-08-08T03:26:41;15.32;85.88
77247;SHT35;66279;42.820;23.374;2023-08-08T03:29:06;15.30;86.21
77247;SHT35;66279;42.820;23.374;2023-08-08T03:31:35;15.35;86.72
77247;SHT35;66279;42.820;23.374;2023-08-08T03:34:01;15.31;86.03
77247;SHT35;66279;42.820;23.374;2023-08-08T03:36:27;15.31;85.83
77247;SHT35;66279;42.820;23.374;2023-08-08T03:38:52;15.32;85.95
77247;SHT35;66279;42.820;23.374;2023-08-08T03:41:19;15.30;85.44
77247;SHT35;66279;42.820;23.374;2023-08-08T03:43:44;15.32;85.89
77247;SHT35;66279;42.820;23.374;2023-08-08T03:46:10;15.32;86.38
77247;SHT35;66279;42.820;23.374;2023-08-08T03:48:37;15.31;86.11
77247;SHT35;66279;42.820;23.374;2023-08-08T03:51:03;15.34;86.75
77247;SHT35;66279;42.820;23.374;2023-08-08T03:53:29;15.32;85.96
77247;SHT35;66279;42.820;23.374;2023-08-08T03:55:55;15.31;85.88
77247;SHT35;66279;42.820;23.374;2023-08-08T03:58:20;15.28;85.85
77247;SHT35;66279;42.820;23.374;2023-08-08T04:00:46;15.23;85.65
77247;SHT35;66279;42.820;23.374;2023-08-08T04:03:16;15.20;85.72
77247;SHT35;66279;42.820;23.374;2023-08-08T04:05:45;15.17;85.29
77247;SHT35;66279;42.820;23.374;2023-08-08T04:08:14;15.16;85.60
77247;SHT35;66279;42.820;23.374;2023-08-08T04:10:40;15.14;84.37
77247;SHT35;66279;42.820;23.374;2023-08-08T04:13:06;15.20;84.30
77247;SHT35;66279;42.820;23.374;2023-08-08T04:15:31;15.18;84.88
77247;SHT35;66279;42.820;23.374;2023-08-08T04:17:57;15.23;85.27
77247;SHT35;66279;42.820;23.374;2023-08-08T04:20:22;15.21;85.47
77247;SHT35;66279;42.820;23.374;2023-08-08T04:22:48;15.16;84.27
77247;SHT35;66279;42.820;23.374;2023-08-08T04:25:15;15.12;84.19
77247;SHT35;66279;42.820;23.374;2023-08-08T04:27:40;15.07;84.42
77247;SHT35;66279;42.820;23.374;2023-08-08T04:30:07;15.07;85.12
77247;SHT35;66279;42.820;23.374;2023-08-08T04:32:32;15.14;85.31
77247;SHT35;66279;42.820;23.374;2023-08-08T04:34:58;15.18;84.80
77247;SHT35;66279;42.820;23.374;2023-08-08T04:37:24;15.23;85.28
77247;SHT35;66279;42.820;23.374;2023-08-08T04:39:49;15.27;85.14
77247;SHT35;66279;42.820;23.374;2023-08-08T04:42:15;15.25;83.76
77247;SHT35;66279;42.820;23.374;2023-08-08T04:44:40;15.23;83.21
77247;SHT35;66279;42.820;23.374;2023-08-08T04:47:06;15.25;84.16
77247;SHT35;66279;42.820;23.374;2023-08-08T04:49:31;15.30;83.50
77247;SHT35;66279;42.820;23.374;2023-08-08T04:51:57;15.23;83.54
77247;SHT35;66279;42.820;23.374;2023-08-08T04:54:22;15.17;83.39
77247;SHT35;66279;42.820;23.374;2023-08-08T04:56:55;15.24;84.67
77247;SHT35;66279;42.820;23.374;2023-08-08T04:59:21;15.28;84.63
77247;SHT35;66279;42.820;23.374;2023-08-08T05:01:46;15.34;83.62
77247;SHT35;66279;42.820;23.374;2023-08-08T05:04:12;15.32;83.95
77247;SHT35;66279;42.820;23.374;2023-08-08T05:06:37;15.34;84.21
77247;SHT35;66279;42.820;23.374;2023-08-08T05:09:03;15.30;84.34
77247;SHT35;66279;42.820;23.374;2023-08-08T05:11:28;15.32;84.60
77247;SHT35;66279;42.820;23.374;2023-08-08T05:13:54;15.28;84.73
77247;SHT35;66279;42.820;23.374;2023-08-08T05:16:19;15.24;84.45
77247;SHT35;66279;42.820;23.374;2023-08-08T05:18:45;15.30;85.08
77247;SHT35;66279;42.820;23.374;2023-08-08T05:21:11;15.37;84.44
77247;SHT35;66279;42.820;23.374;2023-08-08T05:23:36;15.49;83.56
77247;SHT35;66279;42.820;23.374;2023-08-08T05:26:02;15.62;83.38
77247;SHT35;66279;42.820;23.374;2023-08-08T05:28:28;15.83;81.73
77247;SHT35;66279;42.820;23.374;2023-08-08T05:30:54;15.95;80.50
77247;SHT35;66279;42.820;23.374;2023-08-08T05:33:19;16.07;80.68
77247;SHT35;66279;42.820;23.374;2023-08-08T05:35:45;16.06;79.75
77247;SHT35;66279;42.820;23.374;2023-08-08T05:38:10;16.24;79.79
77247;SHT35;66279;42.820;23.374;2023-08-08T05:40:36;16.40;80.83
77247;SHT35;66279;42.820;23.374;2023-08-08T05:43:05;16.50;80.25
77247;SHT35;66279;42.820;23.374;2023-08-08T05:45:30;16.53;80.89
77247;SHT35;66279;42.820;23.374;2023-08-08T05:47:57;16.51;82.20
77247;SHT35;66279;42.820;23.374;2023-08-08T05:50:22;16.44;80.55
77247;SHT35;66279;42.820;23.374;2023-08-08T05:52:48;16.55;81.30
77247;SHT35;66279;42.820;23.374;2023-08-08T05:55:14;16.69;82.67
77247;SHT35;66279;42.820;23.374;2023-08-08T05:57:39;16.72;81.12
77247;SHT35;66279;42.820;23.374;2023-08-08T06:00:05;16.91;80.47
77247;SHT35;66279;42.820;23.374;2023-08-08T06:02:33;17.05;79.87
77247;SHT35;66279;42.820;23.374;2023-08-08T06:04:59;17.15;79.40
77247;SHT35;66279;42.820;23.374;2023-08-08T06:07:24;17.20;76.78
77247;SHT35;66279;42.820;23.374;2023-08-08T06:09:50;17.22;76.66
77247;SHT35;66279;42.820;23.374;2023-08-08T06:12:15;17.39;75.81
77247;SHT35;66279;42.820;23.374;2023-08-08T06:14:41;17.46;73.63
77247;SHT35;66279;42.820;23.374;2023-08-08T06:17:07;17.55;77.83
77247;SHT35;66279;42.820;23.374;2023-08-08T06:19:32;17.83;76.12
77247;SHT35;66279;42.820;23.374;2023-08-08T06:21:58;17.92;74.54
77247;SHT35;66279;42.820;23.374;2023-08-08T06:24:24;18.02;74.98
77247;SHT35;66279;42.820;23.374;2023-08-08T06:26:49;17.97;72.58
77247;SHT35;66279;42.820;23.374;2023-08-08T06:29:15;17.90;72.87
77247;SHT35;66279;42.820;23.374;2023-08-08T06:31:40;17.88;72.88
77247;SHT35;66279;42.820;23.374;2023-08-08T06:34:06;18.00;71.99
77247;SHT35;66279;42.820;23.374;2023-08-08T06:36:32;18.12;71.47
77247;SHT35;66279;42.820;23.374;2023-08-08T06:38:57;18.08;71.88
77247;SHT35;66279;42.820;23.374;2023-08-08T06:41:23;18.15;70.62
77247;SHT35;66279;42.820;23.374;2023-08-08T06:43:48;18.19;71.70
77247;SHT35;66279;42.820;23.374;2023-08-08T06:46:14;18.31;69.43
77247;SHT35;66279;42.820;23.374;2023-08-08T06:48:42;18.21;69.20
77247;SHT35;66279;42.820;23.374;2023-08-08T06:51:08;18.05;70.98
77247;SHT35;66279;42.820;23.374;2023-08-08T06:53:42;17.88;69.14
77247;SHT35;66279;42.820;23.374;2023-08-08T06:56:08;18.02;69.23
77247;SHT35;66279;42.820;23.374;2023-08-08T06:58:33;18.15;67.50
77247;SHT35;66279;42.820;23.374;2023-08-08T07:00:59;18.36;66.70
77247;SHT35;66279;42.820;23.374;2023-08-08T07:03:24;18.72;67.50
77247;SHT35;66279;42.820;23.374;2023-08-08T07:05:50;18.90;65.69
77247;SHT35;66279;42.820;23.374;2023-08-08T07:08:21;19.06;65.98
77247;SHT35;66279;42.820;23.374;2023-08-08T07:10:47;18.97;66.42
77247;SHT35;66279;42.820;23.374;2023-08-08T07:13:12;18.87;65.41
77247;SHT35;66279;42.820;23.374;2023-08-08T07:15:38;18.93;65.64
77247;SHT35;66279;42.820;23.374;2023-08-08T07:18:04;18.81;65.66
77247;SHT35;66279;42.820;23.374;2023-08-08T07:20:29;18.89;67.39
77247;SHT35;66279;42.820;23.374;2023-08-08T07:22:55;19.00;64.91
77247;SHT35;66279;42.820;23.374;2023-08-08T07:25:20;18.96;64.39
77247;SHT35;66279;42.820;23.374;2023-08-08T07:27:46;18.83;62.48
77247;SHT35;66279;42.820;23.374;2023-08-08T07:30:12;18.66;63.86
77247;SHT35;66279;42.820;23.374;2023-08-08T07:32:37;18.70;63.65
77247;SHT35;66279;42.820;23.374;2023-08-08T07:35:03;18.86;63.57
77247;SHT35;66279;42.820;23.374;2023-08-08T07:37:31;18.76;64.71
77247;SHT35;66279;42.820;23.374;2023-08-08T07:39:58;19.25;62.76
77247;SHT35;66279;42.820;23.374;2023-08-08T07:42:23;19.44;62.09
77247;SHT35;66279;42.820;23.374;2023-08-08T07:44:49;19.59;61.63
77247;SHT35;66279;42.820;23.374;2023-08-08T07:47:14;19.55;60.47
77247;SHT35;66279;42.820;23.374;2023-08-08T07:49:40;19.38;60.37
77247;SHT35;66279;42.820;23.374;2023-08-08T07:52:06;19.39;60.65
77247;SHT35;66279;42.820;23.374;2023-08-08T07:54:32;19.44;61.37
77247;SHT35;66279;42.820;23.374;2023-08-08T07:56:58;19.86;59.40
77247;SHT35;66279;42.820;23.374;2023-08-08T07:59:23;20.24;57.63
77247;SHT35;66279;42.820;23.374;2023-08-08T08:01:49;20.57;58.61
77247;SHT35;66279;42.820;23.374;2023-08-08T08:04:14;20.81;56.01
77247;SHT35;66279;42.820;23.374;2023-08-08T08:06:40;21.13;57.79
77247;SHT35;66279;42.820;23.374;2023-08-08T08:09:05;20.89;56.88
77247;SHT35;66279;42.820;23.374;2023-08-08T08:11:31;21.26;55.02
77247;SHT35;66279;42.820;23.374;2023-08-08T08:13:56;21.22;57.42
77247;SHT35;66279;42.820;23.374;2023-08-08T08:16:22;21.45;57.66
77247;SHT35;66279;42.820;23.374;2023-08-08T08:18:48;21.68;57.89
77247;SHT35;66279;42.820;23.374;2023-08-08T08:21:13;22.08;54.17
77247;SHT35;66279;42.820;23.374;2023-08-08T08:23:39;22.01;52.46
77247;SHT35;66279;42.820;23.374;2023-08-08T08:26:05;22.02;52.67
77247;SHT35;66279;42.820;23.374;2023-08-08T08:28:31;21.86;54.42
77247;SHT35;66279;42.820;23.374;2023-08-08T08:30:57;22.25;54.66
77247;SHT35;66279;42.820;23.374;2023-08-08T08:33:22;22.38;51.81
77247;SHT35;66279;42.820;23.374;2023-08-08T08:35:48;22.41;52.89
77247;SHT35;66279;42.820;23.374;2023-08-08T08:38:13;22.66;55.54
77247;SHT35;66279;42.820;23.374;2023-08-08T08:40:41;23.10;55.35
77247;SHT35;66279;42.820;23.374;2023-08-08T08:43:07;23.10;52.23
77247;SHT35;66279;42.820;23.374;2023-08-08T08:45:38;23.23;49.53
77247;SHT35;66279;42.820;23.374;2023-08-08T08:48:09;23.54;49.59
77247;SHT35;66279;42.820;23.374;2023-08-08T08:50:38;23.45;48.66
77247;SHT35;66279;42.820;23.374;2023-08-08T08:53:05;23.08;50.85
77247;SHT35;66279;42.820;23.374;2023-08-08T08:55:30;23.03;50.25
77247;SHT35;66279;42.820;23.374;2023-08-08T08:57:56;23.15;49.13
77247;SHT35;66279;42.820;23.374;2023-08-08T09:00:22;22.97;47.63
77247;SHT35;66279;42.820;23.374;2023-08-08T09:02:48;22.70;48.30
77247;SHT35;66279;42.820;23.374;2023-08-08T09:05:15;22.41;49.17
77247;SHT35;66279;42.820;23.374;2023-08-08T09:07:46;22.60;50.59
77247;SHT35;66279;42.820;23.374;2023-08-08T09:10:12;22.97;50.60
77247;SHT35;66279;42.820;23.374;2023-08-08T09:12:38;23.52;49.17
77247;SHT35;66279;42.820;23.374;2023-08-08T09:15:04;23.66;48.25
77247;SHT35;66279;42.820;23.374;2023-08-08T09:17:30;23.73;48.68
77247;SHT35;66279;42.820;23.374;2023-08-08T09:19:57;23.51;46.73
77247;SHT35;66279;42.820;23.374;2023-08-08T09:22:24;23.03;48.03
77247;SHT35;66279;42.820;23.374;2023-08-08T09:24:50;22.72;48.71
77247;SHT35;66279;42.820;23.374;2023-08-08T09:27:16;22.83;48.05
77247;SHT35;66279;42.820;23.374;2023-08-08T09:29:41;22.80;48.75
77247;SHT35;66279;42.820;23.374;2023-08-08T09:32:08;23.25;47.78
77247;SHT35;66279;42.820;23.374;2023-08-08T09:34:34;23.57;48.35
77247;SHT35;66279;42.820;23.374;2023-08-08T09:37:00;23.78;47.52
77247;SHT35;66279;42.820;23.374;2023-08-08T09:39:28;23.79;47.54
77247;SHT35;66279;42.820;23.374;2023-08-08T09:41:55;23.95;45.48
77247;SHT35;66279;42.820;23.374;2023-08-08T09:44:25;24.20;48.62
77247;SHT35;66279;42.820;23.374;2023-08-08T09:46:52;24.22;46.28
77247;SHT35;66279;42.820;23.374;2023-08-08T09:49:17;24.08;47.07
77247;SHT35;66279;42.820;23.374;2023-08-08T09:51:44;24.46;46.56
77247;SHT35;66279;42.820;23.374;2023-08-08T09:54:11;24.63;45.79
77247;SHT35;66279;42.820;23.374;2023-08-08T09:56:37;24.10;46.11
77247;SHT35;66279;42.820;23.374;2023-08-08T09:59:07;23.90;45.91
77247;SHT35;66279;42.820;23.374;2023-08-08T10:01:34;23.85;47.62
77247;SHT35;66279;42.820;23.374;2023-08-08T10:04:00;23.65;47.69
77247;SHT35;66279;42.820;23.374;2023-08-08T10:06:27;24.03;46.71
77247;SHT35;66279;42.820;23.374;2023-08-08T10:08:53;24.47;45.46
77247;SHT35;66279;42.820;23.374;2023-08-08T10:11:22;24.68;46.62
77247;SHT35;66279;42.820;23.374;2023-08-08T10:13:53;24.64;44.71
77247;SHT35;66279;42.820;23.374;2023-08-08T10:16:19;24.50;45.53
77247;SHT35;66279;42.820;23.374;2023-08-08T10:18:58;24.54;45.80
77247;SHT35;66279;42.820;23.374;2023-08-08T10:21:24;23.78;46.08
77247;SHT35;66279;42.820;23.374;2023-08-08T10:24:12;23.50;47.29
77247;SHT35;66279;42.820;23.374;2023-08-08T10:27:11;23.51;46.40
77247;SHT35;66279;42.820;23.374;2023-08-08T10:29:38;23.06;47.80
77247;SHT35;66279;42.820;23.374;2023-08-08T10:32:05;23.04;48.26
77247;SHT35;66279;42.820;23.374;2023-08-08T10:34:42;23.14;47.18
77247;SHT35;66279;42.820;23.374;2023-08-08T10:37:16;23.72;47.00
77247;SHT35;66279;42.820;23.374;2023-08-08T10:39:57;24.22;45.42
77247;SHT35;66279;42.820;23.374;2023-08-08T10:42:25;24.01;45.04
77247;SHT35;66279;42.820;23.374;2023-08-08T10:44:57;23.75;47.07
77247;SHT35;66279;42.820;23.374;2023-08-08T10:47:23;23.82;47.23
77247;SHT35;66279;42.820;23.374;2023-08-08T10:50:04;23.61;45.88
77247;SHT35;66279;42.820;23.374;2023-08-08T10:52:30;23.40;46.92
77247;SHT35;66279;42.820;23.374;2023-08-08T10:54:56;23.51;46.85
77247;SHT35;66279;42.820;23.374;2023-08-08T10:57:25;23.52;47.26
77247;SHT35;66279;42.820;23.374;2023-08-08T10:59:51;23.51;47.51
77247;SHT35;66279;42.820;23.374;2023-08-08T11:02:19;23.24;47.08
77247;SHT35;66279;42.820;23.374;2023-08-08T11:04:45;23.35;47.09
77247;SHT35;66279;42.820;23.374;2023-08-08T11:07:11;23.47;47.06
77247;SHT35;66279;42.820;23.374;2023-08-08T11:09:39;23.57;46.14
77247;SHT35;66279;42.820;23.374;2023-08-08T11:12:05;23.68;45.97
77247;SHT35;66279;42.820;23.374;2023-08-08T11:14:32;24.05;47.73
77247;SHT35;66279;42.820;23.374;2023-08-08T11:16:58;24.19;46.22
77247;SHT35;66279;42.820;23.374;2023-08-08T11:19:24;24.31;46.05
77247;SHT35;66279;42.820;23.374;2023-08-08T11:21:49;24.61;46.75
77247;SHT35;66279;42.820;23.374;2023-08-08T11:24:15;24.87;46.04
77247;SHT35;66279;42.820;23.374;2023-08-08T11:26:42;25.01;44.32
77247;SHT35;66279;42.820;23.374;2023-08-08T11:29:09;24.84;45.31
77247;SHT35;66279;42.820;23.374;2023-08-08T11:31:35;24.87;44.36
77247;SHT35;66279;42.820;23.374;2023-08-08T11:34:01;25.20;45.66
77247;SHT35;66279;42.820;23.374;2023-08-08T11:36:31;25.39;42.93
77247;SHT35;66279;42.820;23.374;2023-08-08T11:39:02;25.02;43.70
77247;SHT35;66279;42.820;23.374;2023-08-08T11:41:34;24.94;43.62
77247;SHT35;66279;42.820;23.374;2023-08-08T11:44:05;25.18;43.89
77247;SHT35;66279;42.820;23.374;2023-08-08T11:46:32;25.47;44.10
77247;SHT35;66279;42.820;23.374;2023-08-08T11:49:06;26.01;41.63
77247;SHT35;66279;42.820;23.374;2023-08-08T11:51:32;26.38;41.00
77247;SHT35;66279;42.820;23.374;2023-08-08T11:53:59;26.95;40.68
77247;SHT35;66279;42.820;23.374;2023-08-08T11:56:26;27.04;36.44
77247;SHT35;66279;42.820;23.374;2023-08-08T11:58:51;27.20;38.13
77247;SHT35;66279;42.820;23.374;2023-08-08T12:01:22;26.78;39.21
77247;SHT35;66279;42.820;23.374;2023-08-08T12:03:48;26.85;39.51
77247;SHT35;66279;42.820;23.374;2023-08-08T12:06:17;27.22;38.52
77247;SHT35;66279;42.820;23.374;2023-08-08T12:08:45;27.16;38.53
77247;SHT35;66279;42.820;23.374;2023-08-08T12:11:11;27.37;39.53
77247;SHT35;66279;42.820;23.374;2023-08-08T12:13:38;27.24;37.71
77247;SHT35;66279;42.820;23.374;2023-08-08T12:16:06;27.04;38.47
77247;SHT35;66279;42.820;23.374;2023-08-08T12:18:35;26.96;39.98
77247;SHT35;66279;42.820;23.374;2023-08-08T12:21:00;27.10;39.51
77247;SHT35;66279;42.820;23.374;2023-08-08T12:23:26;27.58;37.80
77247;SHT35;66279;42.820;23.374;2023-08-08T12:25:53;27.65;38.45
77247;SHT35;66279;42.820;23.374;2023-08-08T12:28:18;27.84;36.96
77247;SHT35;66279;42.820;23.374;2023-08-08T12:30:44;27.98;37.47
77247;SHT35;66279;42.820;23.374;2023-08-08T12:33:10;28.22;37.50
77247;SHT35;66279;42.820;23.374;2023-08-08T12:35:35;27.71;37.64
77247;SHT35;66279;42.820;23.374;2023-08-08T12:38:01;27.45;37.89
77247;SHT35;66279;42.820;23.374;2023-08-08T12:40:29;27.31;38.82
77247;SHT35;66279;42.820;23.374;2023-08-08T12:42:55;26.59;38.29
77247;SHT35;66279;42.820;23.374;2023-08-08T12:45:20;26.76;40.39
77247;SHT35;66279;42.820;23.374;2023-08-08T12:47:46;26.95;38.35
77247;SHT35;66279;42.820;23.374;2023-08-08T12:50:11;27.08;38.50
77247;SHT35;66279;42.820;23.374;2023-08-08T12:52:37;27.20;38.30
77247;SHT35;66279;42.820;23.374;2023-08-08T12:55:05;26.97;37.75
77247;SHT35;66279;42.820;23.374;2023-08-08T12:57:31;26.71;38.52
77247;SHT35;66279;42.820;23.374;2023-08-08T12:59:57;26.99;38.83
77247;SHT35;66279;42.820;23.374;2023-08-08T13:02:23;27.17;39.24
77247;SHT35;66279;42.820;23.374;2023-08-08T13:04:48;27.47;39.19
77247;SHT35;66279;42.820;23.374;2023-08-08T13:07:14;27.53;38.89
77247;SHT35;66279;42.820;23.374;2023-08-08T13:09:39;28.01;36.96
77247;SHT35;66279;42.820;23.374;2023-08-08T13:12:05;28.02;35.84
77247;SHT35;66279;42.820;23.374;2023-08-08T13:14:31;28.31;38.30
77247;SHT35;66279;42.820;23.374;2023-08-08T13:16:56;28.39;36.03
77247;SHT35;66279;42.820;23.374;2023-08-08T13:19:22;28.05;35.33
77247;SHT35;66279;42.820;23.374;2023-08-08T13:21:53;27.84;35.70
77247;SHT35;66279;42.820;23.374;2023-08-08T13:24:20;27.75;37.14
77247;SHT35;66279;42.820;23.374;2023-08-08T13:26:49;27.47;36.15
77247;SHT35;66279;42.820;23.374;2023-08-08T13:29:14;27.86;35.59
77247;SHT35;66279;42.820;23.374;2023-08-08T13:31:40;27.98;37.45
77247;SHT35;66279;42.820;23.374;2023-08-08T13:34:06;28.23;34.72
77247;SHT35;66279;42.820;23.374;2023-08-08T13:36:32;28.19;34.86
77247;SHT35;66279;42.820;23.374;2023-08-08T13:38:57;27.92;36.07
77247;SHT35;66279;42.820;23.374;2023-08-08T13:41:25;28.23;36.50
77247;SHT35;66279;42.820;23.374;2023-08-08T13:43:51;28.15;36.31
77247;SHT35;66279;42.820;23.374;2023-08-08T13:46:16;28.19;37.07
77247;SHT35;66279;42.820;23.374;2023-08-08T13:48:42;28.13;37.23
77247;SHT35;66279;42.820;23.374;2023-08-08T13:51:08;28.09;36.49
77247;SHT35;66279;42.820;23.374;2023-08-08T13:53:33;28.03;34.99
77247;SHT35;66279;42.820;23.374;2023-08-08T13:55:59;28.27;35.61
77247;SHT35;66279;42.820;23.374;2023-08-08T13:58:25;28.36;37.36
77247;SHT35;66279;42.820;23.374;2023-08-08T14:00:51;28.43;34.69
77247;SHT35;66279;42.820;23.374;2023-08-08T14:03:17;28.92;34.27
77247;SHT35;66279;42.820;23.374;2023-08-08T14:05:43;28.92;34.35
77247;SHT35;66279;42.820;23.374;2023-08-08T14:08:09;28.91;34.90
77247;SHT35;66279;42.820;23.374;2023-08-08T14:10:35;28.98;34.79
77247;SHT35;66279;42.820;23.374;2023-08-08T14:13:00;28.68;35.27
77247;SHT35;66279;42.820;23.374;2023-08-08T14:15:27;28.43;34.75
77247;SHT35;66279;42.820;23.374;2023-08-08T14:17:52;28.47;35.52
77247;SHT35;66279;42.820;23.374;2023-08-08T14:20:18;28.56;35.12
77247;SHT35;66279;42.820;23.374;2023-08-08T14:22:45;28.31;35.58
77247;SHT35;66279;42.820;23.374;2023-08-08T14:25:13;28.12;36.52
77247;SHT35;66279;42.820;23.374;2023-08-08T14:27:40;28.25;35.46
77247;SHT35;66279;42.820;23.374;2023-08-08T14:30:05;28.05;36.73
77247;SHT35;66279;42.820;23.374;2023-08-08T14:32:32;27.84;35.82
77247;SHT35;66279;42.820;23.374;2023-08-08T14:34:57;27.66;36.52
77247;SHT35;66279;42.820;23.374;2023-08-08T14:37:23;28.05;36.41
77247;SHT35;66279;42.820;23.374;2023-08-08T14:39:48;28.20;35.62
77247;SHT35;66279;42.820;23.374;2023-08-08T14:42:14;28.25;36.10
77247;SHT35;66279;42.820;23.374;2023-08-08T14:44:40;28.33;35.81
77247;SHT35;66279;42.820;23.374;2023-08-08T14:47:05;28.61;35.76
77247;SHT35;66279;42.820;23.374;2023-08-08T14:49:31;28.33;34.31
77247;SHT35;66279;42.820;23.374;2023-08-08T14:51:57;28.63;35.76
77247;SHT35;66279;42.820;23.374;2023-08-08T14:54:22;28.40;34.91
77247;SHT35;66279;42.820;23.374;2023-08-08T14:56:48;28.32;35.51
77247;SHT35;66279;42.820;23.374;2023-08-08T14:59:13;28.26;36.25
77247;SHT35;66279;42.820;23.374;2023-08-08T15:01:39;28.31;36.09
77247;SHT35;66279;42.820;23.374;2023-08-08T15:04:05;27.99;36.38
77247;SHT35;66279;42.820;23.374;2023-08-08T15:06:30;27.77;37.06
77247;SHT35;66279;42.820;23.374;2023-08-08T15:08:57;28.05;37.35
77247;SHT35;66279;42.820;23.374;2023-08-08T15:11:23;28.09;36.11